sensor_id;sensor_type;location;lat;lon;timestamp;pressure;altitude;pressure_sealevel;temperature;humidity
62038;BME280;47991;42.974;12.082;2023-04-06T06:48:24;97886.87;;;15.27;37.83
62038;BME280;47991;42.974;12.082;2023-04-06T06:51:53;97886.19;;;15.88;35.81
62038;BME280;47991;42.974;12.082;2023-04-06T06:54:52;97891.58;;;15.80;33.68
62038;BME280;47991;42.974;12.082;2023-04-06T06:57:47;97886.61;;;16.85;34.26
62038;BME280;47991;42.974;12.082;2023-04-06T07:01:11;97884.73;;;18.53;31.47
62038;BME280;47991;42.974;12.082;2023-04-06T07:12:21;97880.28;;;18.31;30.06
62038;BME280;47991;42.974;12.082;2023-04-06T07:23:16;97890.59;;;16.92;30.93
62038;BME280;47991;42.974;12.082;2023-04-06T07:31:53;97899.00;;;12.66;36.97
62038;BME280;47991;42.974;12.082;2023-04-06T07:35:40;97900.70;;;12.38;36.98
62038;BME280;47991;42.974;12.082;2023-04-06T07:39:52;97904.09;;;11.07;37.92
62038;BME280;47991;42.974;12.082;2023-04-06T07:52:36;97897.83;;;10.23;39.49
62038;BME280;47991;42.974;12.082;2023-04-06T07:56:24;97905.89;;;10.18;39.34
62038;BME280;47991;42.974;12.082;2023-04-06T08:04:41;97897.89;;;10.57;38.50
62038;BME280;47991;42.974;12.082;2023-04-06T08:12:32;97898.16;;;10.53;39.40
62038;BME280;47991;42.974;12.082;2023-04-06T08:16:11;97898.79;;;10.42;39.12
62038;BME280;47991;42.974;12.082;2023-04-06T08:28:00;97911.80;;;10.38;39.70
62038;BME280;47991;42.974;12.082;2023-04-06T08:31:57;97909.30;;;10.23;40.05
62038;BME280;47991;42.974;12.082;2023-04-06T08:35:20;97906.20;;;9.82;40.98
62038;BME280;47991;42.974;12.082;2023-04-06T08:39:18;97904.91;;;10.23;40.68
62038;BME280;47991;42.974;12.082;2023-04-06T08:47:53;97911.15;;;10.36;40.48
62038;BME280;47991;42.974;12.082;2023-04-06T08:52:00;97902.06;;;10.38;40.09
62038;BME280;47991;42.974;12.082;2023-04-06T09:11:28;97899.92;;;10.99;39.54
62038;BME280;47991;42.974;12.082;2023-04-06T09:13:59;97901.67;;;11.18;39.32
62038;BME280;47991;42.974;12.082;2023-04-06T09:16:42;97900.80;;;11.43;39.10
62038;BME280;47991;42.974;12.082;2023-04-06T09:19:09;97903.48;;;11.54;38.78
62038;BME280;47991;42.974;12.082;2023-04-06T09:21:41;97906.63;;;11.61;38.30
62038;BME280;47991;42.974;12.082;2023-04-06T09:24:57;97906.53;;;11.40;37.00
62038;BME280;47991;42.974;12.082;2023-04-06T09:27:36;97903.38;;;10.96;36.86
62038;BME280;47991;42.974;12.082;2023-04-06T09:30:27;97905.45;;;11.23;37.84
62038;BME280;47991;42.974;12.082;2023-04-06T09:32:56;97903.61;;;11.12;38.30
62038;BME280;47991;42.974;12.082;2023-04-06T09:35:58;97898.04;;;11.03;38.26
62038;BME280;47991;42.974;12.082;2023-04-06T09:50:41;97895.38;;;11.28;37.58
62038;BME280;47991;42.974;12.082;2023-04-06T10:09:35;97896.38;;;11.31;36.79
62038;BME280;47991;42.974;12.082;2023-04-06T10:12:27;97895.66;;;11.72;36.06
62038;BME280;47991;42.974;12.082;2023-04-06T10:29:08;97879.25;;;12.04;36.56
62038;BME280;47991;42.974;12.082;2023-04-06T10:37:10;97871.89;;;13.20;34.97
62038;BME280;47991;42.974;12.082;2023-04-06T10:55:38;97858.27;;;13.28;33.78
62038;BME280;47991;42.974;12.082;2023-04-06T10:58:52;97861.94;;;13.35;35.02
62038;BME280;47991;42.974;12.082;2023-04-06T11:02:08;97856.92;;;13.64;32.90
62038;BME280;47991;42.974;12.082;2023-04-06T11:09:37;97854.94;;;13.37;34.14
62038;BME280;47991;42.974;12.082;2023-04-06T11:15:39;97849.62;;;13.41;33.66
62038;BME280;47991;42.974;12.082;2023-04-06T11:18:31;97851.39;;;13.46;33.29
62038;BME280;47991;42.974;12.082;2023-04-06T11:21:41;97850.46;;;12.70;34.96
62038;BME280;47991;42.974;12.082;2023-04-06T11:24:30;97848.88;;;12.94;34.64
62038;BME280;47991;42.974;12.082;2023-04-06T11:27:04;97841.21;;;13.09;33.91
62038;BME280;47991;42.974;12.082;2023-04-06T11:32:50;97842.30;;;13.42;31.75
62038;BME280;47991;42.974;12.082;2023-04-06T11:35:33;97834.80;;;13.84;32.64
62038;BME280;47991;42.974;12.082;2023-04-06T11:38:33;97833.65;;;14.25;32.72
62038;BME280;47991;42.974;12.082;2023-04-06T11:41:03;97831.14;;;14.55;32.18
62038;BME280;47991;42.974;12.082;2023-04-06T11:43:35;97827.65;;;13.67;32.36
62038;BME280;47991;42.974;12.082;2023-04-06T11:46:18;97830.09;;;13.17;32.94
62038;BME280;47991;42.974;12.082;2023-04-06T11:49:09;97832.23;;;13.31;33.54
62038;BME280;47991;42.974;12.082;2023-04-06T11:51:53;97821.91;;;13.95;32.94
62038;BME280;47991;42.974;12.082;2023-04-06T11:54:44;97819.61;;;14.33;32.72
62038;BME280;47991;42.974;12.082;2023-04-06T11:57:17;97819.87;;;14.69;32.20
62038;BME280;47991;42.974;12.082;2023-04-06T12:00:32;97817.15;;;14.62;32.08
62038;BME280;47991;42.974;12.082;2023-04-06T12:03:35;97815.48;;;14.92;31.70
62038;BME280;47991;42.974;12.082;2023-04-06T12:06:16;97815.16;;;15.14;31.63
62038;BME280;47991;42.974;12.082;2023-04-06T12:08:52;97813.47;;;15.21;30.94
62038;BME280;47991;42.974;12.082;2023-04-06T12:11:34;97807.50;;;15.23;30.95
62038;BME280;47991;42.974;12.082;2023-04-06T12:14:23;97806.66;;;15.37;30.99
62038;BME280;47991;42.974;12.082;2023-04-06T12:16:53;97809.33;;;15.48;31.04
62038;BME280;47991;42.974;12.082;2023-04-06T12:19:19;97805.74;;;15.56;31.09
62038;BME280;47991;42.974;12.082;2023-04-06T12:22:13;97803.30;;;15.51;30.09
62038;BME280;47991;42.974;12.082;2023-04-06T12:24:53;97802.73;;;15.52;30.13
62038;BME280;47991;42.974;12.082;2023-04-06T12:27:28;97799.34;;;15.71;30.66
62038;BME280;47991;42.974;12.082;2023-04-06T12:30:24;97792.00;;;15.83;29.77
62038;BME280;47991;42.974;12.082;2023-04-06T12:32:59;97787.90;;;15.68;29.31
62038;BME280;47991;42.974;12.082;2023-04-06T12:38:29;97785.77;;;16.01;29.73
62038;BME280;47991;42.974;12.082;2023-04-06T12:41:14;97784.23;;;16.21;30.42
62038;BME280;47991;42.974;12.082;2023-04-06T12:43:45;97779.72;;;16.46;29.95
62038;BME280;47991;42.974;12.082;2023-04-06T12:46:35;97781.55;;;16.62;29.42
62038;BME280;47991;42.974;12.082;2023-04-06T12:49:08;97782.89;;;16.88;28.55
62038;BME280;47991;42.974;12.082;2023-04-06T12:51:47;97782.70;;;16.61;28.32
62038;BME280;47991;42.974;12.082;2023-04-06T12:54:23;97782.41;;;16.63;28.76
62038;BME280;47991;42.974;12.082;2023-04-06T12:57:29;97780.20;;;16.41;28.35
62038;BME280;47991;42.974;12.082;2023-04-06T13:04:04;97781.55;;;15.44;29.66
62038;BME280;47991;42.974;12.082;2023-04-06T13:09:51;97778.67;;;16.35;28.95
62038;BME280;47991;42.974;12.082;2023-04-06T13:12:48;97775.65;;;16.76;28.08
62038;BME280;47991;42.974;12.082;2023-04-06T13:16:12;97778.14;;;15.65;25.85
62038;BME280;47991;42.974;12.082;2023-04-06T13:26:12;97785.69;;;15.28;27.81
62038;BME280;47991;42.974;12.082;2023-04-06T13:28:59;97781.08;;;15.73;29.33
62038;BME280;47991;42.974;12.082;2023-04-06T13:32:16;97775.91;;;15.62;27.67
62038;BME280;47991;42.974;12.082;2023-04-06T13:43:31;97762.02;;;16.23;28.01
62038;BME280;47991;42.974;12.082;2023-04-06T13:46:13;97772.10;;;15.63;27.76
62038;BME280;47991;42.974;12.082;2023-04-06T13:49:33;97769.15;;;15.35;27.63
62038;BME280;47991;42.974;12.082;2023-04-06T13:59:51;97752.77;;;16.05;28.52
62038;BME280;47991;42.974;12.082;2023-04-06T14:10:31;97737.43;;;17.95;27.19
62038;BME280;47991;42.974;12.082;2023-04-06T14:14:02;97734.35;;;18.20;26.92
62038;BME280;47991;42.974;12.082;2023-04-06T14:16:33;97736.45;;;18.42;27.41
62038;BME280;47991;42.974;12.082;2023-04-06T14:19:06;97730.23;;;18.47;26.40
62038;BME280;47991;42.974;12.082;2023-04-06T14:21:50;97726.36;;;18.46;26.51
62038;BME280;47991;42.974;12.082;2023-04-06T14:24:41;97723.43;;;18.11;26.10
62038;BME280;47991;42.974;12.082;2023-04-06T14:27:47;97718.04;;;17.56;25.59
62038;BME280;47991;42.974;12.082;2023-04-06T14:30:32;97723.67;;;16.74;25.96
62038;BME280;47991;42.974;12.082;2023-04-06T14:33:17;97724.48;;;16.24;26.45
62038;BME280;47991;42.974;12.082;2023-04-06T14:36:23;97723.54;;;15.79;26.81
62038;BME280;47991;42.974;12.082;2023-04-06T14:39:00;97722.47;;;15.72;27.25
62038;BME280;47991;42.974;12.082;2023-04-06T14:41:37;97715.20;;;16.03;27.41
62038;BME280;47991;42.974;12.082;2023-04-06T14:44:29;97714.55;;;16.47;27.39
62038;BME280;47991;42.974;12.082;2023-04-06T14:47:03;97713.02;;;15.90;26.94
62038;BME280;47991;42.974;12.082;2023-04-06T14:49:42;97710.94;;;15.71;27.36
62038;BME280;47991;42.974;12.082;2023-04-06T14:52:08;97713.49;;;15.74;27.74
62038;BME280;47991;42.974;12.082;2023-04-06T14:54:44;97707.73;;;15.86;27.85
62038;BME280;47991;42.974;12.082;2023-04-06T14:57:18;97709.66;;;16.07;28.04
62038;BME280;47991;42.974;12.082;2023-04-06T15:00:01;97707.76;;;16.02;26.93
62038;BME280;47991;42.974;12.082;2023-04-06T15:02:39;97716.70;;;14.76;27.45
62038;BME280;47991;42.974;12.082;2023-04-06T15:05:12;97721.11;;;15.00;27.83
62038;BME280;47991;42.974;12.082;2023-04-06T15:07:55;97710.48;;;15.37;27.67
62038;BME280;47991;42.974;12.082;2023-04-06T15:10:58;97716.56;;;15.32;27.41
62038;BME280;47991;42.974;12.082;2023-04-06T15:13:39;97715.83;;;15.37;28.11
62038;BME280;47991;42.974;12.082;2023-04-06T15:16:15;97711.71;;;15.37;27.73
62038;BME280;47991;42.974;12.082;2023-04-06T15:19:23;97715.41;;;14.85;27.86
62038;BME280;47991;42.974;12.082;2023-04-06T15:22:02;97716.72;;;15.18;28.68
62038;BME280;47991;42.974;12.082;2023-04-06T15:24:36;97713.98;;;14.93;28.54
62038;BME280;47991;42.974;12.082;2023-04-06T15:27:16;97714.67;;;15.16;28.55
62038;BME280;47991;42.974;12.082;2023-04-06T15:29:50;97708.98;;;15.34;29.10
62038;BME280;47991;42.974;12.082;2023-04-06T15:32:57;97711.25;;;15.28;27.87
62038;BME280;47991;42.974;12.082;2023-04-06T15:35:31;97712.18;;;15.12;28.53
62038;BME280;47991;42.974;12.082;2023-04-06T15:38:11;97715.42;;;15.00;28.52
62038;BME280;47991;42.974;12.082;2023-04-06T15:40:47;97716.96;;;14.82;29.03
62038;BME280;47991;42.974;12.082;2023-04-06T15:43:20;97712.41;;;14.73;29.22
62038;BME280;47991;42.974;12.082;2023-04-06T15:46:00;97714.40;;;14.72;29.17
62038;BME280;47991;42.974;12.082;2023-04-06T15:48:48;97712.08;;;14.65;29.05
62038;BME280;47991;42.974;12.082;2023-04-06T15:51:25;97708.70;;;14.76;28.65
62038;BME280;47991;42.974;12.082;2023-04-06T15:53:56;97709.37;;;14.89;28.80
62038;BME280;47991;42.974;12.082;2023-04-06T15:56:26;97708.16;;;14.60;27.92
62038;BME280;47991;42.974;12.082;2023-04-06T15:59:14;97708.42;;;14.34;28.70
62038;BME280;47991;42.974;12.082;2023-04-06T16:01:49;97706.42;;;14.39;28.87
62038;BME280;47991;42.974;12.082;2023-04-06T16:04:33;97706.52;;;14.53;28.97
62038;BME280;47991;42.974;12.082;2023-04-06T16:06:59;97710.27;;;14.69;29.44
62038;BME280;47991;42.974;12.082;2023-04-06T16:09:34;97715.46;;;14.88;29.64
62038;BME280;47991;42.974;12.082;2023-04-06T16:12:03;97712.95;;;15.07;29.84
62038;BME280;47991;42.974;12.082;2023-04-06T16:14:50;97712.42;;;15.19;29.33
62038;BME280;47991;42.974;12.082;2023-04-06T16:17:25;97709.65;;;15.24;28.43
62038;BME280;47991;42.974;12.082;2023-04-06T16:20:27;97707.86;;;15.05;28.35
62038;BME280;47991;42.974;12.082;2023-04-06T16:23:06;97711.42;;;14.98;28.47
62038;BME280;47991;42.974;12.082;2023-04-06T16:28:57;97708.89;;;15.10;29.08
62038;BME280;47991;42.974;12.082;2023-04-06T16:31:27;97707.30;;;15.06;28.82
62038;BME280;47991;42.974;12.082;2023-04-06T16:33:57;97708.85;;;14.92;29.02
62038;BME280;47991;42.974;12.082;2023-04-06T16:36:28;97710.30;;;14.84;29.07
62038;BME280;47991;42.974;12.082;2023-04-06T16:39:18;97706.67;;;14.73;29.42
62038;BME280;47991;42.974;12.082;2023-04-06T16:41:49;97706.75;;;14.64;29.49
62038;BME280;47991;42.974;12.082;2023-04-06T16:44:19;97708.21;;;14.55;29.50
62038;BME280;47991;42.974;12.082;2023-04-06T16:47:31;97707.98;;;14.40;29.52
62038;BME280;47991;42.974;12.082;2023-04-06T16:50:19;97705.83;;;14.29;29.67
62038;BME280;47991;42.974;12.082;2023-04-06T16:52:56;97706.77;;;14.15;30.33
62038;BME280;47991;42.974;12.082;2023-04-06T16:55:57;97704.41;;;14.00;31.09
62038;BME280;47991;42.974;12.082;2023-04-06T16:58:32;97700.05;;;13.89;31.72
62038;BME280;47991;42.974;12.082;2023-04-06T17:01:01;97699.05;;;13.80;31.56
62038;BME280;47991;42.974;12.082;2023-04-06T17:03:33;97700.42;;;13.68;31.59
62038;BME280;47991;42.974;12.082;2023-04-06T17:06:03;97700.50;;;13.58;31.46
62038;BME280;47991;42.974;12.082;2023-04-06T17:08:36;97701.46;;;13.47;31.97
62038;BME280;47991;42.974;12.082;2023-04-06T17:11:07;97700.64;;;13.37;32.22
62038;BME280;47991;42.974;12.082;2023-04-06T17:13:56;97700.85;;;13.27;32.10
62038;BME280;47991;42.974;12.082;2023-04-06T17:16:36;97698.92;;;13.21;31.70
62038;BME280;47991;42.974;12.082;2023-04-06T17:19:11;97697.68;;;13.17;32.06
62038;BME280;47991;42.974;12.082;2023-04-06T17:21:44;97700.52;;;13.08;32.36
62038;BME280;47991;42.974;12.082;2023-04-06T17:24:19;97696.77;;;13.00;32.39
62038;BME280;47991;42.974;12.082;2023-04-06T17:26:52;97698.61;;;12.89;32.79
62038;BME280;47991;42.974;12.082;2023-04-06T17:29:29;97699.11;;;12.75;32.72
62038;BME280;47991;42.974;12.082;2023-04-06T17:32:32;97701.56;;;12.58;33.15
62038;BME280;47991;42.974;12.082;2023-04-06T17:35:24;97699.64;;;12.42;32.94
62038;BME280;47991;42.974;12.082;2023-04-06T17:38:00;97700.60;;;12.26;33.40
62038;BME280;47991;42.974;12.082;2023-04-06T17:40:36;97701.98;;;12.07;34.52
62038;BME280;47991;42.974;12.082;2023-04-06T17:43:10;97703.51;;;11.78;34.65
62038;BME280;47991;42.974;12.082;2023-04-06T17:50:21;97715.02;;;11.17;34.48
62038;BME280;47991;42.974;12.082;2023-04-06T17:53:44;97713.45;;;11.00;35.16
62038;BME280;47991;42.974;12.082;2023-04-06T17:57:02;97716.69;;;10.86;34.93
62038;BME280;47991;42.974;12.082;2023-04-06T18:00:18;97716.16;;;10.69;34.97
62038;BME280;47991;42.974;12.082;2023-04-06T18:07:05;97721.00;;;10.15;36.09
62038;BME280;47991;42.974;12.082;2023-04-06T18:17:35;97742.38;;;9.46;38.00
62038;BME280;47991;42.974;12.082;2023-04-06T18:20:29;97745.48;;;9.34;37.50
62038;BME280;47991;42.974;12.082;2023-04-06T18:23:22;97750.08;;;9.27;37.03
62038;BME280;47991;42.974;12.082;2023-04-06T18:25:51;97752.77;;;9.17;37.12
62038;BME280;47991;42.974;12.082;2023-04-06T18:28:41;97759.39;;;8.97;37.77
62038;BME280;47991;42.974;12.082;2023-04-06T18:31:34;97762.23;;;8.79;37.95
62038;BME280;47991;42.974;12.082;2023-04-06T18:34:38;97765.58;;;8.62;38.77
62038;BME280;47991;42.974;12.082;2023-04-06T18:41:45;97779.61;;;8.38;39.26
62038;BME280;47991;42.974;12.082;2023-04-06T18:45:07;97787.19;;;8.28;41.15
62038;BME280;47991;42.974;12.082;2023-04-06T18:48:40;97794.65;;;8.25;40.20
62038;BME280;47991;42.974;12.082;2023-04-06T18:56:22;97811.98;;;8.01;39.76
62038;BME280;47991;42.974;12.082;2023-04-06T18:59:26;97819.77;;;7.87;39.86
62038;BME280;47991;42.974;12.082;2023-04-06T19:02:22;97824.62;;;7.82;39.98
62038;BME280;47991;42.974;12.082;2023-04-06T19:04:58;97824.95;;;7.83;39.41
62038;BME280;47991;42.974;12.082;2023-04-06T19:08:02;97825.19;;;7.80;39.69
62038;BME280;47991;42.974;12.082;2023-04-06T19:10:37;97833.15;;;7.77;39.87
62038;BME280;47991;42.974;12.082;2023-04-06T19:13:47;97835.09;;;7.77;39.59
62038;BME280;47991;42.974;12.082;2023-04-06T19:16:25;97836.75;;;7.72;39.38
62038;BME280;47991;42.974;12.082;2023-04-06T19:19:41;97838.47;;;7.64;40.75
62038;BME280;47991;42.974;12.082;2023-04-06T19:22:42;97844.50;;;7.49;40.45
62038;BME280;47991;42.974;12.082;2023-04-06T19:25:20;97846.54;;;7.29;41.62
62038;BME280;47991;42.974;12.082;2023-04-06T19:27:51;97847.27;;;7.15;40.96
62038;BME280;47991;42.974;12.082;2023-04-06T19:30:55;97848.95;;;7.07;41.23
62038;BME280;47991;42.974;12.082;2023-04-06T19:33:47;97851.74;;;6.94;41.76
62038;BME280;47991;42.974;12.082;2023-04-06T19:37:24;97852.45;;;6.80;43.06
62038;BME280;47991;42.974;12.082;2023-04-06T19:40:20;97853.02;;;6.78;41.74
62038;BME280;47991;42.974;12.082;2023-04-06T19:42:58;97854.58;;;6.79;41.47
62038;BME280;47991;42.974;12.082;2023-04-06T19:45:53;97855.30;;;6.77;41.68
62038;BME280;47991;42.974;12.082;2023-04-06T19:49:52;97856.95;;;6.70;41.65
62038;BME280;47991;42.974;12.082;2023-04-06T19:52:33;97860.24;;;6.75;41.90
62038;BME280;47991;42.974;12.082;2023-04-06T19:55:56;97863.23;;;6.60;42.99
62038;BME280;47991;42.974;12.082;2023-04-06T19:58:38;97862.55;;;6.39;43.21
62038;BME280;47991;42.974;12.082;2023-04-06T20:01:22;97869.85;;;6.10;44.05
62038;BME280;47991;42.974;12.082;2023-04-06T20:07:56;97866.69;;;5.63;45.46
62038;BME280;47991;42.974;12.082;2023-04-06T20:11:22;97864.92;;;5.64;44.96
62038;BME280;47991;42.974;12.082;2023-04-06T20:15:01;97865.50;;;5.58;44.91
62038;BME280;47991;42.974;12.082;2023-04-06T20:17:53;97870.19;;;5.38;46.03
62038;BME280;47991;42.974;12.082;2023-04-06T20:20:40;97861.98;;;5.31;45.65
62038;BME280;47991;42.974;12.082;2023-04-06T20:23:39;97866.78;;;5.20;45.54
62038;BME280;47991;42.974;12.082;2023-04-06T20:26:35;97861.40;;;5.09;47.18
62038;BME280;47991;42.974;12.082;2023-04-06T20:29:20;97861.63;;;4.98;47.45
62038;BME280;47991;42.974;12.082;2023-04-06T20:36:03;97864.52;;;4.79;47.56
62038;BME280;47991;42.974;12.082;2023-04-06T20:38:37;97861.20;;;4.75;47.27
62038;BME280;47991;42.974;12.082;2023-04-06T20:41:37;97867.34;;;4.73;47.79
62038;BME280;47991;42.974;12.082;2023-04-06T20:44:49;97873.83;;;4.71;47.60
62038;BME280;47991;42.974;12.082;2023-04-06T20:55:17;97877.48;;;4.82;48.43
62038;BME280;47991;42.974;12.082;2023-04-06T20:58:42;97875.90;;;4.80;47.56
62038;BME280;47991;42.974;12.082;2023-04-06T21:02:52;97880.64;;;4.78;48.24
62038;BME280;47991;42.974;12.082;2023-04-06T21:10:08;97878.65;;;4.92;48.54
62038;BME280;47991;42.974;12.082;2023-04-06T21:13:13;97878.27;;;4.99;47.53
62038;BME280;47991;42.974;12.082;2023-04-06T21:17:04;97881.23;;;5.05;47.26
62038;BME280;47991;42.974;12.082;2023-04-06T21:19:31;97881.55;;;5.11;48.15
62038;BME280;47991;42.974;12.082;2023-04-06T21:22:01;97884.48;;;5.19;47.46
62038;BME280;47991;42.974;12.082;2023-04-06T21:24:35;97882.16;;;5.29;47.46
62038;BME280;47991;42.974;12.082;2023-04-06T21:31:08;97879.94;;;5.48;47.24
62038;BME280;47991;42.974;12.082;2023-04-06T21:35:08;97879.73;;;5.54;47.23
62038;BME280;47991;42.974;12.082;2023-04-06T21:38:05;97881.35;;;5.46;48.11
62038;BME280;47991;42.974;12.082;2023-04-06T21:41:01;97882.27;;;5.38;47.84
62038;BME280;47991;42.974;12.082;2023-04-06T21:44:03;97881.45;;;5.28;48.12
62038;BME280;47991;42.974;12.082;2023-04-06T21:47:33;97882.55;;;5.17;48.21
62038;BME280;47991;42.974;12.082;2023-04-06T21:50:09;97881.56;;;5.07;48.08
62038;BME280;47991;42.974;12.082;2023-04-06T21:52:51;97879.15;;;4.99;48.55
62038;BME280;47991;42.974;12.082;2023-04-06T21:55:57;97878.31;;;4.91;48.34
62038;BME280;47991;42.974;12.082;2023-04-06T21:58:50;97879.70;;;4.90;48.26
62038;BME280;47991;42.974;12.082;2023-04-06T22:02:02;97881.67;;;4.83;48.75
62038;BME280;47991;42.974;12.082;2023-04-06T22:04:50;97885.02;;;4.77;48.68
62038;BME280;47991;42.974;12.082;2023-04-06T22:08:05;97887.48;;;4.72;48.78
62038;BME280;47991;42.974;12.082;2023-04-06T22:10:33;97886.08;;;4.72;48.99
62038;BME280;47991;42.974;12.082;2023-04-06T22:13:14;97883.63;;;4.73;49.28
62038;BME280;47991;42.974;12.082;2023-04-06T22:15:45;97884.14;;;4.75;49.35
62038;BME280;47991;42.974;12.082;2023-04-06T22:18:56;97885.03;;;4.72;49.11
62038;BME280;47991;42.974;12.082;2023-04-06T22:21:38;97883.82;;;4.67;48.67
62038;BME280;47991;42.974;12.082;2023-04-06T22:24:31;97886.13;;;4.53;48.57
62038;BME280;47991;42.974;12.082;2023-04-06T22:28:33;97891.42;;;4.28;49.28
62038;BME280;47991;42.974;12.082;2023-04-06T22:31:06;97888.99;;;4.26;50.20
62038;BME280;47991;42.974;12.082;2023-04-06T22:34:05;97890.03;;;4.34;49.24
62038;BME280;47991;42.974;12.082;2023-04-06T22:37:22;97883.89;;;4.40;49.54
62038;BME280;47991;42.974;12.082;2023-04-06T22:44:36;97877.39;;;4.49;49.30
62038;BME280;47991;42.974;12.082;2023-04-06T22:47:31;97879.14;;;4.50;48.79
62038;BME280;47991;42.974;12.082;2023-04-06T22:55:02;97882.16;;;4.22;49.16
62038;BME280;47991;42.974;12.082;2023-04-06T22:57:51;97882.89;;;4.10;49.53
62038;BME280;47991;42.974;12.082;2023-04-06T23:00:53;97880.96;;;3.87;50.10
62038;BME280;47991;42.974;12.082;2023-04-06T23:04:09;97879.03;;;3.66;49.82
62038;BME280;47991;42.974;12.082;2023-04-06T23:07:09;97880.42;;;3.65;50.89
62038;BME280;47991;42.974;12.082;2023-04-06T23:10:26;97884.27;;;3.75;50.13
62038;BME280;47991;42.974;12.082;2023-04-06T23:13:57;97883.58;;;3.69;50.85
62038;BME280;47991;42.974;12.082;2023-04-06T23:20:24;97885.15;;;3.61;50.62
62038;BME280;47991;42.974;12.082;2023-04-06T23:23:31;97880.06;;;3.56;50.97
62038;BME280;47991;42.974;12.082;2023-04-06T23:26:38;97880.77;;;3.61;50.11
62038;BME280;47991;42.974;12.082;2023-04-06T23:30:02;97879.39;;;3.72;49.73
62038;BME280;47991;42.974;12.082;2023-04-06T23:32:53;97878.52;;;3.80;49.37
62038;BME280;47991;42.974;12.082;2023-04-06T23:36:10;97881.83;;;3.73;49.58
62038;BME280;47991;42.974;12.082;2023-04-06T23:39:12;97879.73;;;3.66;49.85
62038;BME280;47991;42.974;12.082;2023-04-06T23:42:11;97882.86;;;3.50;50.33
62038;BME280;47991;42.974;12.082;2023-04-06T23:45:23;97877.28;;;3.61;49.61
62038;BME280;47991;42.974;12.082;2023-04-06T23:55:59;97877.77;;;3.34;50.48
